Time;durP1;ratioP1;P1;durP2;ratioP2;P2;SDS_P1;SDS_P2;PMS_P1;PMS_P2;Temp;Humidity;BMP_temperature;BMP_pressure;BME280_temperature;BME280_humidity;BME280_pressure;Samples;Min_cycle;Max_cycle;Signal;HPM_P1;HPM_P2
2021/01/01 00:00:31;;;;;;;;;;;;;;;21.40;28.88;97280.03;5120414;28;1909;-76
2021/01/01 00:02:59;;;;;;;;;;;;;;;19.53;28.68;96974.19;5120002;28;829;-76
2021/01/01 00:05:25;;;;;;;;;;;;;;;21.24;28.87;97278.97;5120655;28;905;-75
2021/01/01 00:07:51;;;;;;;;;;;;;;;21.82;28.11;97272.75;5120236;28;643;-76
2021/01/01 00:10:16;;;;;;;;;;;;;;;22.28;27.31;97286.38;5120690;28;682;-76
2021/01/01 00:12:42;;;;;;;;;;;;;;;22.70;26.80;97295.16;5120056;28;943;-75
2021/01/01 00:15:07;;;;;;;;;;;;;;;22.75;26.77;97300.19;5119849;28;1003;-75
2021/01/01 00:17:33;;;;;;;;;;;;;;;21.65;28.17;97296.88;5119979;28;1046;-76
2021/01/01 00:19:58;;;;;;;;;;;;;;;21.79;27.90;97301.22;5120217;28;1905;-75
2021/01/01 00:22:24;;;;;;;;;;;;;;;21.68;28.03;97301.63;5120202;28;714;-74
2021/01/01 00:24:49;;;;;;;;;;;;;;;21.54;28.32;97314.25;5121183;28;650;-76
2021/01/01 00:27:16;;;;;;;;;;;;;;;21.26;28.96;97313.25;5124126;28;891;-76
2021/01/01 00:29:41;;;;;;;;;;;;;;;21.94;27.98;97312.78;5123784;28;850;-75
2021/01/01 00:32:07;;;;;;;;;;;;;;;22.53;26.94;97322.19;5123821;28;954;-75
2021/01/01 00:34:32;;;;;;;;;;;;;;;22.62;26.57;97322.22;5124063;28;610;-75
2021/01/01 00:37:01;;;;;;;;;;;;;;;22.76;26.62;97323.69;5123930;28;670;-75
2021/01/01 00:39:26;;;;;;;;;;;;;;;22.27;26.99;97318.78;5123866;28;1898;-76
2021/01/01 00:41:52;;;;;;;;;;;;;;;21.55;28.29;97315.06;5123857;28;947;-76
2021/01/01 00:44:17;;;;;;;;;;;;;;;20.95;28.91;97318.00;5123632;28;797;-76
2021/01/01 00:46:43;;;;;;;;;;;;;;;21.48;28.41;97321.00;5123717;28;1077;-76
2021/01/01 00:49:08;;;;;;;;;;;;;;;21.38;28.74;97322.97;5123845;28;589;-76
2021/01/01 00:51:33;;;;;;;;;;;;;;;21.52;28.37;97316.78;5123839;28;665;-76
2021/01/01 00:53:59;;;;;;;;;;;;;;;21.77;28.01;97315.84;5123145;28;1106;-75
2021/01/01 00:56:25;;;;;;;;;;;;;;;21.99;27.99;97326.34;5123454;28;915;-75
2021/01/01 00:58:51;;;;;;;;;;;;;;;22.53;26.74;97322.19;5123306;28;897;-75
2021/01/01 01:01:21;;;;;;;;;;;;;;;22.72;26.43;97337.22;5123368;28;1901;-75
2021/01/01 01:03:47;;;;;;;;;;;;;;;22.78;26.58;97329.66;5123405;28;649;-75
2021/01/01 01:06:12;;;;;;;;;;;;;;;21.67;27.79;97328.38;5123520;28;698;-75
2021/01/01 01:08:39;;;;;;;;;;;;;;;21.79;27.82;97340.84;5122929;28;1132;-74
2021/01/01 01:11:04;;;;;;;;;;;;;;;21.56;28.45;97339.31;5122901;28;935;-75
2021/01/01 01:13:29;;;;;;;;;;;;;;;21.41;28.78;97338.25;5123491;28;1065;-75
2021/01/01 01:15:55;;;;;;;;;;;;;;;21.57;28.59;97350.16;5123412;28;621;-75
2021/01/01 01:18:20;;;;;;;;;;;;;;;21.97;27.94;97346.66;5122870;28;1242;-75
2021/01/01 01:20:46;;;;;;;;;;;;;;;22.53;27.01;97350.53;5123209;28;1918;-75
2021/01/01 01:23:12;;;;;;;;;;;;;;;22.70;26.65;97351.88;5122652;28;1083;-75
2021/01/01 01:25:37;;;;;;;;;;;;;;;22.70;26.67;97346.19;5122767;28;799;-75
2021/01/01 01:28:03;;;;;;;;;;;;;;;21.03;29.07;97347.59;5122893;28;1008;-76
2021/01/01 01:30:28;;;;;;;;;;;;;;;21.71;27.81;97346.00;5122957;28;710;-75
2021/01/01 01:32:54;;;;;;;;;;;;;;;21.49;28.22;97350.88;5122802;28;605;-75
2021/01/01 01:35:19;;;;;;;;;;;;;;;21.65;28.42;97342.19;5123194;28;666;-75
2021/01/01 01:37:45;;;;;;;;;;;;;;;21.41;28.70;97344.69;5121307;28;821;-75
2021/01/01 01:40:10;;;;;;;;;;;;;;;21.37;28.72;97348.91;5122341;28;1909;-75
2021/01/01 01:42:36;;;;;;;;;;;;;;;21.38;28.82;97345.59;5122679;28;839;-76
2021/01/01 01:45:01;;;;;;;;;;;;;;;21.26;29.03;97346.41;5122692;28;653;-76
2021/01/01 01:47:27;;;;;;;;;;;;;;;22.13;27.85;97348.50;5122743;28;694;-76
2021/01/01 01:49:52;;;;;;;;;;;;;;;22.58;27.14;97349.91;5122622;28;708;-75
2021/01/01 01:52:18;;;;;;;;;;;;;;;22.61;26.93;97343.31;5121554;28;1050;-75
2021/01/01 01:54:43;;;;;;;;;;;;;;;22.59;27.24;97340.97;5121799;28;855;-76
2021/01/01 01:57:09;;;;;;;;;;;;;;;22.83;26.50;97357.41;5122508;28;887;-75
2021/01/01 01:59:35;;;;;;;;;;;;;;;21.73;27.95;97337.84;5121805;28;1964;-75
2021/01/01 02:02:00;;;;;;;;;;;;;;;21.43;28.92;97344.22;5121576;28;682;-75
2021/01/01 02:04:29;;;;;;;;;;;;;;;21.86;28.14;97332.09;5121932;28;1104;-75
2021/01/01 02:06:54;;;;;;;;;;;;;;;21.63;28.42;97332.56;5122077;28;819;-75
2021/01/01 02:09:19;;;;;;;;;;;;;;;21.58;28.76;97331.13;5121983;28;1061;-75
2021/01/01 02:11:46;;;;;;;;;;;;;;;21.37;29.36;97337.56;5121779;28;729;-75
2021/01/01 02:14:12;;;;;;;;;;;;;;;21.78;28.79;97334.41;5122106;28;931;-75
2021/01/01 02:16:37;;;;;;;;;;;;;;;22.27;27.67;97347.91;5122010;28;1026;-75
2021/01/01 02:19:03;;;;;;;;;;;;;;;22.63;27.28;97352.16;5121602;28;836;-76
2021/01/01 02:21:28;;;;;;;;;;;;;;;22.23;27.57;97352.94;5121683;28;1980;-75
2021/01/01 02:23:54;;;;;;;;;;;;;;;21.88;28.16;97359.97;5121784;28;851;-76
2021/01/01 02:26:19;;;;;;;;;;;;;;;21.43;29.08;97352.72;5121735;28;602;-75
2021/01/01 02:28:45;;;;;;;;;;;;;;;21.65;28.72;97364.81;5121763;28;665;-75
2021/01/01 02:31:10;;;;;;;;;;;;;;;22.16;28.09;97353.22;5121449;28;996;-76
2021/01/01 02:33:35;;;;;;;;;;;;;;;22.35;27.62;97357.72;5121663;28;913;-76
2021/01/01 02:36:01;;;;;;;;;;;;;;;22.85;26.96;97358.53;5121903;28;914;-76
2021/01/01 02:38:26;;;;;;;;;;;;;;;22.15;27.99;97354.47;5121909;28;693;-76
2021/01/01 02:40:52;;;;;;;;;;;;;;;21.17;29.42;97347.13;5121894;28;1909;-76
2021/01/01 02:43:17;;;;;;;;;;;;;;;21.39;29.21;97344.34;5121597;28;622;-76
2021/01/01 02:45:43;;;;;;;;;;;;;;;21.66;28.76;97343.78;5121582;28;1020;-76
2021/01/01 02:48:11;;;;;;;;;;;;;;;21.68;28.87;97348.97;5120914;28;918;-75
2021/01/01 02:50:36;;;;;;;;;;;;;;;21.44;29.26;97342.97;5121385;28;877;-75
2021/01/01 02:53:03;;;;;;;;;;;;;;;21.94;28.73;97338.28;5121200;28;844;-75
2021/01/01 02:55:29;;;;;;;;;;;;;;;22.40;27.89;97330.81;5121244;28;641;-75
2021/01/01 02:57:54;;;;;;;;;;;;;;;22.57;27.83;97337.00;5121288;28;594;-75
2021/01/01 03:00:20;;;;;;;;;;;;;;;22.50;27.83;97334.47;5120735;28;1979;-75
2021/01/01 03:02:45;;;;;;;;;;;;;;;21.78;28.25;97345.72;5120775;28;914;-76
2021/01/01 03:05:11;;;;;;;;;;;;;;;21.51;29.22;97348.38;5121151;28;998;-76
2021/01/01 03:07:37;;;;;;;;;;;;;;;21.46;29.21;97346.13;5121244;28;710;-76
2021/01/01 03:10:02;;;;;;;;;;;;;;;21.64;29.10;97351.91;5121121;28;590;-75
2021/01/01 03:12:28;;;;;;;;;;;;;;;21.54;29.29;97347.44;5121058;28;876;-75
2021/01/01 03:14:53;;;;;;;;;;;;;;;21.23;29.77;97356.59;5120845;28;590;-75
2021/01/01 03:17:18;;;;;;;;;;;;;;;21.39;29.55;97366.19;5120605;27;1098;-75
2021/01/01 03:19:44;;;;;;;;;;;;;;;21.96;28.64;97364.09;5120888;28;1906;-76
2021/01/01 03:22:09;;;;;;;;;;;;;;;22.28;28.02;97366.50;5120850;28;861;-76
2021/01/01 03:24:35;;;;;;;;;;;;;;;22.54;27.60;97371.97;5120860;28;635;-76
2021/01/01 03:27:00;;;;;;;;;;;;;;;22.42;27.63;97367.19;5120805;28;894;-76
2021/01/01 03:29:26;;;;;;;;;;;;;;;21.82;28.25;97379.59;5120732;28;557;-76
2021/01/01 03:31:51;;;;;;;;;;;;;;;21.55;28.69;97377.31;5119781;28;1104;-76
2021/01/01 03:34:16;;;;;;;;;;;;;;;21.76;28.27;97375.75;5120536;28;874;-75
2021/01/01 03:36:42;;;;;;;;;;;;;;;21.66;28.92;97382.59;5120756;28;986;-75
2021/01/01 03:39:07;;;;;;;;;;;;;;;21.66;28.89;97388.25;5120594;28;681;-75
2021/01/01 03:41:33;;;;;;;;;;;;;;;21.67;29.19;97396.31;5120573;28;1905;-75
2021/01/01 03:43:58;;;;;;;;;;;;;;;21.59;29.36;97397.81;5120361;28;670;-75
2021/01/01 03:46:24;;;;;;;;;;;;;;;22.32;27.88;97389.81;5120130;28;1071;-76
2021/01/01 03:48:49;;;;;;;;;;;;;;;22.45;27.62;97388.94;5120247;28;851;-76
2021/01/01 03:51:14;;;;;;;;;;;;;;;22.68;27.26;97394.06;5120384;28;941;-76
2021/01/01 03:53:40;;;;;;;;;;;;;;;22.35;27.91;97393.78;5120712;28;658;-75
2021/01/01 03:56:05;;;;;;;;;;;;;;;21.65;28.88;97392.34;5120994;28;651;-76
2021/01/01 03:58:31;;;;;;;;;;;;;;;21.45;29.25;97389.81;5120225;28;602;-75
2021/01/01 04:00:58;;;;;;;;;;;;;;;21.38;29.26;97382.38;5122778;28;1910;-76
2021/01/01 04:03:24;;;;;;;;;;;;;;;21.54;29.27;97384.25;5124096;28;1172;-75
2021/01/01 04:05:50;;;;;;;;;;;;;;;21.63;29.20;97378.66;5124489;28;1006;-76
2021/01/01 04:08:15;;;;;;;;;;;;;;;21.64;29.25;97385.09;5124421;28;638;-75
2021/01/01 04:10:41;;;;;;;;;;;;;;;21.64;29.27;97379.44;5124684;28;602;-75
2021/01/01 04:13:06;;;;;;;;;;;;;;;21.66;29.19;97377.75;5124346;28;717;-75
2021/01/01 04:15:31;;;;;;;;;;;;;;;22.17;28.38;97388.78;5123778;28;1104;-76
2021/01/01 04:17:57;;;;;;;;;;;;;;;22.58;27.84;97395.28;5123928;28;1338;-76
2021/01/01 04:20:22;;;;;;;;;;;;;;;22.70;27.50;97390.78;5123600;28;1971;-75
2021/01/01 04:22:48;;;;;;;;;;;;;;;22.63;27.55;97400.34;5123694;28;1286;-75
2021/01/01 04:25:13;;;;;;;;;;;;;;;22.16;28.11;97392.09;5124369;28;622;-76
2021/01/01 04:27:39;;;;;;;;;;;;;;;21.72;28.94;97404.22;5124205;28;679;-75
2021/01/01 04:30:04;;;;;;;;;;;;;;;20.94;30.20;97412.59;5123747;28;1102;-75
2021/01/01 04:32:30;;;;;;;;;;;;;;;21.35;29.57;97413.63;5123922;28;912;-75
2021/01/01 04:34:55;;;;;;;;;;;;;;;21.18;29.75;97416.59;5123886;28;872;-75
2021/01/01 04:37:21;;;;;;;;;;;;;;;21.72;29.27;97426.88;5124145;28;650;-75
2021/01/01 04:39:47;;;;;;;;;;;;;;;22.27;28.25;97432.94;5123970;28;1906;-76
2021/01/01 04:42:12;;;;;;;;;;;;;;;22.42;27.60;97438.84;5124040;28;681;-76
2021/01/01 04:44:38;;;;;;;;;;;;;;;22.76;27.12;97439.97;5122833;28;962;-75
2021/01/01 04:47:04;;;;;;;;;;;;;;;21.73;28.23;97439.78;5123608;28;952;-73
2021/01/01 04:49:30;;;;;;;;;;;;;;;21.51;28.80;97447.47;5106063;28;856;-74
2021/01/01 04:51:56;;;;;;;;;;;;;;;21.62;28.46;97445.03;5123846;28;709;-75
2021/01/01 04:54:21;;;;;;;;;;;;;;;21.57;28.75;97451.28;5123111;28;654;-74
2021/01/01 04:56:47;;;;;;;;;;;;;;;22.00;28.12;97458.22;5122897;28;690;-75
2021/01/01 04:59:15;;;;;;;;;;;;;;;22.28;27.47;97457.22;5123826;28;653;-76
2021/01/01 05:01:44;;;;;;;;;;;;;;;22.66;26.83;97464.66;5123715;28;1972;-76
2021/01/01 05:04:09;;;;;;;;;;;;;;;22.62;26.93;97464.00;5123343;28;899;-76
2021/01/01 05:06:36;;;;;;;;;;;;;;;22.04;27.66;97464.56;5123238;28;822;-76
2021/01/01 05:09:02;;;;;;;;;;;;;;;21.61;28.02;97471.75;5123472;28;898;-76
2021/01/01 05:11:28;;;;;;;;;;;;;;;20.72;29.62;97469.81;5122837;28;614;-76
2021/01/01 05:13:57;;;;;;;;;;;;;;;21.74;28.43;97469.66;5123387;28;662;-76
2021/01/01 05:16:22;;;;;;;;;;;;;;;22.19;27.69;97479.81;5123448;28;670;-76
2021/01/01 05:18:48;;;;;;;;;;;;;;;22.20;27.63;97478.56;5122804;28;1000;-76
2021/01/01 05:21:20;;;;;;;;;;;;;;;22.40;27.43;97491.59;5123190;28;1984;-76
2021/01/01 05:23:46;;;;;;;;;;;;;;;22.55;26.80;97492.63;5122657;28;857;-76
2021/01/01 05:26:12;;;;;;;;;;;;;;;21.09;29.05;97492.91;5122562;28;599;-76
2021/01/01 05:28:58;;;;;;;;;;;;;;;21.73;28.18;97490.75;5123003;28;662;-76
2021/01/01 05:31:23;;;;;;;;;;;;;;;21.63;28.28;97500.41;5115412;28;1311;-76
2021/01/01 05:34:04;;;;;;;;;;;;;;;21.80;28.40;97498.97;5123065;28;674;-76
2021/01/01 05:36:39;;;;;;;;;;;;;;;21.54;28.61;97489.78;5122516;28;653;-75
2021/01/01 05:39:06;;;;;;;;;;;;;;;22.02;28.18;97489.72;5122732;28;705;-75
2021/01/01 05:41:35;;;;;;;;;;;;;;;22.37;27.38;97498.97;5122650;28;1902;-75
2021/01/01 05:44:20;;;;;;;;;;;;;;;22.73;26.83;97500.44;5122736;28;682;-76
2021/01/01 05:46:55;;;;;;;;;;;;;;;22.41;26.84;97507.34;5122048;28;903;-75
2021/01/01 05:49:21;;;;;;;;;;;;;;;21.35;28.82;97515.50;5122413;28;907;-76
2021/01/01 05:52:05;;;;;;;;;;;;;;;21.09;29.11;97515.53;5122858;28;602;-76
2021/01/01 05:54:31;;;;;;;;;;;;;;;21.25;28.83;97512.56;5122659;28;726;-76
2021/01/01 05:56:56;;;;;;;;;;;;;;;22.22;27.73;97515.72;5122547;28;690;-76
2021/01/01 05:59:23;;;;;;;;;;;;;;;22.52;26.65;97519.84;5122755;28;681;-75
2021/01/01 06:01:48;;;;;;;;;;;;;;;22.43;26.75;97521.84;5122673;28;1898;-76
2021/01/01 06:04:14;;;;;;;;;;;;;;;22.48;26.82;97529.75;5121607;28;1005;-76
2021/01/01 06:06:39;;;;;;;;;;;;;;;22.13;26.99;97529.84;5122453;28;974;-76
2021/01/01 06:09:05;;;;;;;;;;;;;;;21.75;27.59;97532.75;5122350;28;610;-76
2021/01/01 06:11:34;;;;;;;;;;;;;;;21.71;27.69;97538.56;5122364;28;645;-76
2021/01/01 06:13:59;;;;;;;;;;;;;;;21.78;27.91;97526.19;5122301;28;661;-76
2021/01/01 06:16:24;;;;;;;;;;;;;;;22.26;27.09;97533.38;5121524;28;929;-76
2021/01/01 06:18:50;;;;;;;;;;;;;;;22.52;26.50;97531.19;5120748;28;1146;-76
2021/01/01 06:21:28;;;;;;;;;;;;;;;22.70;26.35;97539.03;5121419;28;1910;-76
2021/01/01 06:23:53;;;;;;;;;;;;;;;21.78;27.50;97538.31;5120775;28;705;-76
2021/01/01 06:26:18;;;;;;;;;;;;;;;21.57;27.87;97527.72;5121300;28;645;-76
2021/01/01 06:28:44;;;;;;;;;;;;;;;21.51;27.79;97529.53;5121604;28;606;-76
2021/01/01 06:31:10;;;;;;;;;;;;;;;21.74;27.66;97531.97;5121246;28;665;-76
2021/01/01 06:33:35;;;;;;;;;;;;;;;21.89;27.41;97539.97;5120749;28;864;-76
2021/01/01 06:36:01;;;;;;;;;;;;;;;22.31;26.61;97529.97;5121436;28;1101;-76
2021/01/01 06:38:35;;;;;;;;;;;;;;;22.62;26.29;97529.22;5121443;28;922;-76
2021/01/01 06:41:00;;;;;;;;;;;;;;;22.78;25.85;97540.34;5120933;28;1971;-76
2021/01/01 06:43:39;;;;;;;;;;;;;;;22.22;26.47;97546.88;5121631;28;657;-76
2021/01/01 06:46:05;;;;;;;;;;;;;;;21.49;28.10;97537.69;5121102;28;1385;-76
2021/01/01 06:48:30;;;;;;;;;;;;;;;21.75;27.29;97556.19;5121100;28;757;-76
2021/01/01 06:50:56;;;;;;;;;;;;;;;21.71;27.65;97555.53;5120997;28;856;-76
2021/01/01 06:53:28;;;;;;;;;;;;;;;21.84;27.20;97570.44;5121248;28;969;-76
2021/01/01 06:55:53;;;;;;;;;;;;;;;21.35;28.05;97575.75;5121551;28;819;-76
2021/01/01 06:58:34;;;;;;;;;;;;;;;21.92;27.15;97576.69;5121278;28;714;-76
2021/01/01 07:01:00;;;;;;;;;;;;;;;22.07;26.96;97576.94;5121348;28;1972;-76
2021/01/01 07:03:40;;;;;;;;;;;;;;;22.42;26.41;97574.13;5121114;28;658;-76
2021/01/01 07:06:06;;;;;;;;;;;;;;;22.57;26.35;97572.34;5121442;28;637;-76
2021/01/01 07:08:43;;;;;;;;;;;;;;;22.58;26.25;97576.75;5121091;28;626;-76
2021/01/01 07:11:09;;;;;;;;;;;;;;;21.77;27.43;97578.41;5121041;28;938;-76
2021/01/01 07:13:40;;;;;;;;;;;;;;;21.53;27.53;97578.00;5120771;28;898;-76
2021/01/01 07:16:06;;;;;;;;;;;;;;;21.68;27.54;97581.94;5121370;28;887;-76
2021/01/01 07:18:31;;;;;;;;;;;;;;;21.68;27.42;97600.97;5120863;28;1058;-76
2021/01/01 07:21:00;;;;;;;;;;;;;;;21.67;27.63;97593.72;5121217;28;1902;-76
2021/01/01 07:23:28;;;;;;;;;;;;;;;21.49;27.80;97594.28;5120904;28;732;-76
2021/01/01 07:26:00;;;;;;;;;;;;;;;22.00;27.03;97599.88;5120724;28;991;-76
2021/01/01 07:28:26;;;;;;;;;;;;;;;22.22;26.75;97589.38;5120411;28;854;-75
2021/01/01 07:30:51;;;;;;;;;;;;;;;22.48;26.28;97600.63;5120853;28;899;-76
2021/01/01 07:33:20;;;;;;;;;;;;;;;22.55;26.27;97606.06;5120762;28;702;-76
2021/01/01 07:35:49;;;;;;;;;;;;;;;21.75;27.47;97618.50;5119162;28;666;-76
2021/01/01 07:38:15;;;;;;;;;;;;;;;21.06;28.72;97615.44;5119599;28;920;-76
2021/01/01 07:40:40;;;;;;;;;;;;;;;21.37;28.05;97620.56;5119856;28;1901;-76
2021/01/01 07:43:06;;;;;;;;;;;;;;;21.50;28.03;97629.84;5120467;28;717;-76
2021/01/01 07:45:31;;;;;;;;;;;;;;;21.75;27.65;97635.50;5119830;28;1196;-76
2021/01/01 07:47:56;;;;;;;;;;;;;;;21.50;28.10;97641.16;5120715;28;623;-76
2021/01/01 07:50:22;;;;;;;;;;;;;;;22.07;27.07;97644.94;5120535;28;725;-76
2021/01/01 07:52:50;;;;;;;;;;;;;;;22.31;26.59;97654.66;5120247;28;933;-76
2021/01/01 07:55:19;;;;;;;;;;;;;;;22.66;26.19;97651.81;5119404;28;1385;-76
2021/01/01 07:57:45;;;;;;;;;;;;;;;22.69;26.32;97656.59;5120832;28;805;-76
2021/01/01 08:00:11;;;;;;;;;;;;;;;22.12;26.97;97666.28;5120364;28;1964;-76
2021/01/01 08:02:39;;;;;;;;;;;;;;;20.84;28.99;97668.22;5120493;28;657;-75
2021/01/01 08:05:05;;;;;;;;;;;;;;;21.23;28.43;97678.38;5119666;28;637;-76
2021/01/01 08:07:31;;;;;;;;;;;;;;;21.62;27.95;97671.53;5120240;28;954;-74
2021/01/01 08:09:56;;;;;;;;;;;;;;;22.00;27.86;97673.53;5119937;28;910;-75
2021/01/01 08:12:22;;;;;;;;;;;;;;;22.25;27.43;97673.50;5120257;28;873;-75
2021/01/01 08:14:48;;;;;;;;;;;;;;;22.38;27.18;97669.84;5120294;28;654;-75
2021/01/01 08:17:20;;;;;;;;;;;;;;;22.46;26.93;97679.69;5120188;28;994;-76
2021/01/01 08:19:45;;;;;;;;;;;;;;;21.68;28.01;97681.03;5120077;28;1930;-75
2021/01/01 08:22:12;;;;;;;;;;;;;;;21.65;27.89;97687.59;5119465;28;883;-74
2021/01/01 08:24:37;;;;;;;;;;;;;;;21.40;28.57;97687.56;5119182;28;934;-75
2021/01/01 08:27:03;;;;;;;;;;;;;;;21.38;28.35;97684.41;5119444;28;875;-75
2021/01/01 08:29:28;;;;;;;;;;;;;;;21.54;28.39;97681.47;5120204;28;635;-75
2021/01/01 08:31:55;;;;;;;;;;;;;;;21.79;28.25;97687.16;5119202;28;848;-75
2021/01/01 08:34:21;;;;;;;;;;;;;;;22.08;27.72;97684.19;5119684;28;650;-75
2021/01/01 08:36:46;;;;;;;;;;;;;;;22.33;27.30;97686.19;5118782;28;933;-75
2021/01/01 08:39:12;;;;;;;;;;;;;;;22.63;26.96;97689.59;5120098;28;837;-76
2021/01/01 08:41:44;;;;;;;;;;;;;;;22.42;27.02;97681.84;5120000;28;1902;-75
2021/01/01 08:44:10;;;;;;;;;;;;;;;21.79;28.05;97681.47;5120296;28;633;-76
2021/01/01 08:46:35;;;;;;;;;;;;;;;21.83;27.91;97687.81;5122599;28;690;-76
2021/01/01 08:49:15;;;;;;;;;;;;;;;21.74;28.17;97684.88;5123763;28;657;-75
2021/01/01 08:51:40;;;;;;;;;;;;;;;21.63;28.49;97684.44;5123613;28;859;-76
2021/01/01 08:54:06;;;;;;;;;;;;;;;21.56;28.81;97679.81;5123368;28;938;-76
2021/01/01 08:56:31;;;;;;;;;;;;;;;21.84;28.17;97689.41;5123109;28;848;-76
2021/01/01 08:59:07;;;;;;;;;;;;;;;22.31;27.55;97688.69;5105724;28;1255;-76
2021/01/01 09:01:32;;;;;;;;;;;;;;;22.48;26.99;97685.69;5123632;28;1898;-76
2021/01/01 09:04:01;;;;;;;;;;;;;;;22.47;26.95;97701.09;5123215;28;899;-75
2021/01/01 09:06:26;;;;;;;;;;;;;;;21.81;27.64;97698.84;5123362;28;889;-76
2021/01/01 09:09:02;;;;;;;;;;;;;;;21.64;28.18;97697.34;5123363;28;999;-76
2021/01/01 09:11:27;;;;;;;;;;;;;;;21.12;28.84;97709.81;5123648;28;654;-76
2021/01/01 09:14:03;;;;;;;;;;;;;;;21.80;28.24;97700.06;5123399;28;656;-76
2021/01/01 09:16:28;;;;;;;;;;;;;;;22.47;27.12;97701.09;5123355;28;619;-75
2021/01/01 09:18:54;;;;;;;;;;;;;;;22.53;26.84;97693.59;5122094;28;1099;-76
2021/01/01 09:21:19;;;;;;;;;;;;;;;22.56;26.65;97704.03;5123004;28;1902;-76
2021/01/01 09:23:52;;;;;;;;;;;;;;;22.20;27.12;97699.59;5122984;28;860;-76
2021/01/01 09:26:21;;;;;;;;;;;;;;;21.31;28.17;97708.88;5123242;28;618;-76
2021/01/01 09:28:46;;;;;;;;;;;;;;;21.45;28.16;97723.81;5123170;28;599;-76
2021/01/01 09:31:13;;;;;;;;;;;;;;;21.66;27.77;97728.84;5122784;28;890;-76
2021/01/01 09:33:39;;;;;;;;;;;;;;;22.23;27.42;97721.38;5122665;28;953;-75
2021/01/01 09:36:04;;;;;;;;;;;;;;;22.68;26.86;97713.75;5122876;28;999;-76
2021/01/01 09:38:30;;;;;;;;;;;;;;;22.60;26.52;97710.38;5123180;28;680;-75
2021/01/01 09:40:55;;;;;;;;;;;;;;;22.30;26.86;97698.44;5122864;28;1966;-75
2021/01/01 09:43:21;;;;;;;;;;;;;;;21.61;28.09;97698.25;5122996;28;590;-75
2021/01/01 09:45:46;;;;;;;;;;;;;;;21.68;27.77;97705.72;5122520;28;897;-76
2021/01/01 09:48:12;;;;;;;;;;;;;;;21.43;28.26;97709.34;5122487;28;858;-75
2021/01/01 09:50:37;;;;;;;;;;;;;;;21.93;28.15;97707.78;5122821;28;919;-75
2021/01/01 09:53:02;;;;;;;;;;;;;;;22.19;27.32;97702.88;5122608;28;664;-76
2021/01/01 09:55:28;;;;;;;;;;;;;;;22.60;26.65;97699.03;5122688;28;654;-76
2021/01/01 09:57:54;;;;;;;;;;;;;;;22.73;26.53;97705.44;5121262;28;860;-76
2021/01/01 10:00:20;;;;;;;;;;;;;;;22.35;26.72;97699.91;5122510;28;1960;-75
2021/01/01 10:02:45;;;;;;;;;;;;;;;21.88;27.66;97692.13;5122226;28;1013;-76
2021/01/01 10:05:11;;;;;;;;;;;;;;;21.55;28.07;97708.53;5122423;28;635;-76
2021/01/01 10:07:36;;;;;;;;;;;;;;;21.33;28.75;97706.38;5122466;28;622;-75
2021/01/01 10:10:05;;;;;;;;;;;;;;;21.72;28.41;97693.06;5122507;28;653;-76
2021/01/01 10:12:32;;;;;;;;;;;;;;;22.46;27.23;97693.88;5122367;28;995;-75
2021/01/01 10:14:59;;;;;;;;;;;;;;;22.77;26.65;97700.44;5121998;28;867;-75
2021/01/01 10:17:25;;;;;;;;;;;;;;;22.95;26.06;97690.50;5122055;28;991;-76
2021/01/01 10:19:50;;;;;;;;;;;;;;;22.67;26.42;97693.09;5121946;28;1909;-75
2021/01/01 10:22:16;;;;;;;;;;;;;;;21.87;27.83;97687.72;5122316;28;697;-76
2021/01/01 10:24:42;;;;;;;;;;;;;;;21.38;28.60;97695.75;5121632;28;1008;-76
2021/01/01 10:27:08;;;;;;;;;;;;;;;21.03;28.93;97692.69;5121681;28;865;-76
2021/01/01 10:29:33;;;;;;;;;;;;;;;21.02;29.28;97696.78;5122172;28;927;-75
2021/01/01 10:32:02;;;;;;;;;;;;;;;22.20;27.58;97688.25;5121865;28;586;-76
2021/01/01 10:34:28;;;;;;;;;;;;;;;22.58;26.78;97684.50;5121836;28;663;-75
2021/01/01 10:36:53;;;;;;;;;;;;;;;22.71;26.66;97682.44;5121845;28;614;-76
2021/01/01 10:39:19;;;;;;;;;;;;;;;22.73;26.52;97688.41;5120414;28;866;-76
2021/01/01 10:41:46;;;;;;;;;;;;;;;21.92;27.42;97684.31;5120674;28;1906;-76
2021/01/01 10:44:12;;;;;;;;;;;;;;;21.75;27.90;97689.28;5121497;28;843;-76
2021/01/01 10:46:37;;;;;;;;;;;;;;;21.27;28.66;97696.03;5121964;28;641;-75
2021/01/01 10:49:02;;;;;;;;;;;;;;;21.68;28.02;97688.75;5121482;28;659;-75
2021/01/01 10:51:28;;;;;;;;;;;;;;;21.79;28.02;97689.97;5121476;28;906;-76
2021/01/01 10:53:53;;;;;;;;;;;;;;;22.41;27.01;97688.78;5121111;28;855;-75
2021/01/01 10:56:28;;;;;;;;;;;;;;;22.72;26.59;97701.03;5121650;28;930;-76
2021/01/01 10:58:53;;;;;;;;;;;;;;;22.69;26.37;97693.44;5121188;28;606;-76
2021/01/01 11:01:19;;;;;;;;;;;;;;;22.35;26.78;97699.91;5121301;27;1973;-75
2021/01/01 11:03:44;;;;;;;;;;;;;;;21.86;27.38;97703.09;5120167;28;809;-75
2021/01/01 11:06:10;;;;;;;;;;;;;;;21.34;28.10;97698.66;5120911;28;1041;-76
2021/01/01 11:08:35;;;;;;;;;;;;;;;21.68;27.83;97698.03;5120625;28;945;-75
2021/01/01 11:11:01;;;;;;;;;;;;;;;21.47;28.46;97693.81;5121445;28;977;-76
2021/01/01 11:13:26;;;;;;;;;;;;;;;22.03;27.77;97689.63;5120939;28;683;-75
2021/01/01 12:19:45;;;;;;;;;;;;;;;22.83;26.14;97746.81;5120086;28;598;-73
2021/01/01 12:22:02;;;;;;;;;;;;;;;21.97;27.38;97748.09;5122464;28;1909;-73
2021/01/01 12:27:01;;;;;;;;;;;;;;;20.75;28.76;97760.13;5124245;28;851;-75
2021/01/01 12:29:26;;;;;;;;;;;;;;;21.69;27.96;97764.72;5123431;28;918;-75
2021/01/01 12:31:52;;;;;;;;;;;;;;;22.40;27.16;97769.41;5124189;28;709;-76
2021/01/01 12:34:17;;;;;;;;;;;;;;;22.52;26.64;97765.75;5124251;28;638;-75
2021/01/01 12:36:42;;;;;;;;;;;;;;;22.60;26.71;97767.09;5124272;28;614;-75
2021/01/01 12:39:08;;;;;;;;;;;;;;;22.61;26.56;97780.00;5123674;28;990;-75
2021/01/01 12:41:33;;;;;;;;;;;;;;;21.84;27.47;97785.72;5123806;28;1894;-75
2021/01/01 12:43:59;;;;;;;;;;;;;;;21.59;27.98;97780.00;5123785;28;1015;-76
2021/01/01 12:46:27;;;;;;;;;;;;;;;21.59;27.86;97785.66;5123887;28;662;-75
2021/01/01 12:48:53;;;;;;;;;;;;;;;21.41;28.25;97779.75;5124260;28;653;-75
2021/01/01 12:51:18;;;;;;;;;;;;;;;21.48;28.29;97780.34;5123792;28;677;-75
2021/01/01 12:53:44;;;;;;;;;;;;;;;21.82;27.85;97782.53;5123681;28;682;-75
2021/01/01 12:56:10;;;;;;;;;;;;;;;22.28;27.09;97776.69;5123612;28;1112;-76
2021/01/01 12:58:35;;;;;;;;;;;;;;;22.51;26.84;97786.84;5123229;28;956;-76
2021/01/01 13:01:01;;;;;;;;;;;;;;;22.59;26.45;97776.84;5122504;28;2003;-75
2021/01/01 13:03:26;;;;;;;;;;;;;;;22.32;26.87;97785.84;5123739;28;665;-75
2021/01/01 13:05:52;;;;;;;;;;;;;;;21.50;28.23;97791.19;5123635;28;721;-75
2021/01/01 13:08:17;;;;;;;;;;;;;;;21.37;28.47;97790.38;5123405;28;658;-75
2021/01/01 13:10:42;;;;;;;;;;;;;;;21.62;28.15;97796.09;5123341;28;990;-75
2021/01/01 13:13:08;;;;;;;;;;;;;;;22.19;27.32;97800.03;5123063;28;887;-75
2021/01/01 13:15:34;;;;;;;;;;;;;;;22.48;26.53;97796.25;5123328;28;915;-75
2021/01/01 13:17:59;;;;;;;;;;;;;;;22.82;26.09;97801.19;5123798;28;1146;-75
2021/01/01 13:20:25;;;;;;;;;;;;;;;22.15;26.96;97798.56;5123260;28;1901;-76
2021/01/01 13:22:50;;;;;;;;;;;;;;;21.77;27.58;97808.59;5123486;28;718;-75
2021/01/01 13:25:19;;;;;;;;;;;;;;;21.51;27.68;97806.97;5123253;28;738;-76
2021/01/01 13:27:45;;;;;;;;;;;;;;;21.32;28.14;97809.50;5123193;28;646;-75
2021/01/01 13:30:11;;;;;;;;;;;;;;;22.06;27.87;97819.03;5123013;28;963;-75
2021/01/01 13:32:36;;;;;;;;;;;;;;;22.53;26.63;97816.31;5121597;28;934;-75
2021/01/01 13:35:03;;;;;;;;;;;;;;;22.61;26.57;97814.03;5122799;28;937;-75
2021/01/01 13:37:31;;;;;;;;;;;;;;;22.68;25.98;97815.84;5123034;28;640;-75
2021/01/01 13:39:57;;;;;;;;;;;;;;;21.86;27.40;97816.41;5123118;28;1909;-75
2021/01/01 13:42:22;;;;;;;;;;;;;;;21.61;27.71;97822.84;5123088;28;672;-75
2021/01/01 13:44:48;;;;;;;;;;;;;;;21.23;28.58;97837.63;5122385;28;852;-75
2021/01/01 13:47:13;;;;;;;;;;;;;;;21.88;27.95;97835.81;5122457;28;830;-75
2021/01/01 13:49:39;;;;;;;;;;;;;;;22.33;26.85;97839.25;5122760;28;1035;-75
2021/01/01 13:52:04;;;;;;;;;;;;;;;22.44;26.60;97832.44;5122685;28;702;-75
2021/01/01 13:54:30;;;;;;;;;;;;;;;22.76;26.43;97832.16;5122604;28;753;-75
2021/01/01 13:56:55;;;;;;;;;;;;;;;22.33;26.67;97839.25;5122772;28;685;-75
2021/01/01 13:59:21;;;;;;;;;;;;;;;21.74;27.48;97843.47;5122526;28;1060;-76
2021/01/01 14:01:46;;;;;;;;;;;;;;;21.50;27.55;97845.81;5122036;28;1977;-75
2021/01/01 14:04:11;;;;;;;;;;;;;;;21.68;27.49;97850.94;5122492;28;992;-74
2021/01/01 14:06:37;;;;;;;;;;;;;;;21.60;27.75;97841.03;5122393;28;992;-75